sensor_id;sensor_type;location;lat;lon;timestamp;P1;durP1;ratioP1;P2;durP2;ratioP2
22673;SDS011;11504;43.334;21.918;2023-04-12T00:02:49;35.0;;;33.0;;
22673;SDS011;11504;43.334;21.918;2023-04-12T00:07:27;35.0;;;33.0;;
22673;SDS011;11504;43.334;21.918;2023-04-12T00:12:04;36.0;;;34.0;;
22673;SDS011;11504;43.334;21.918;2023-04-12T00:16:43;36.0;;;34.0;;
22673;SDS011;11504;43.334;21.918;2023-04-12T00:21:19;37.0;;;35.0;;
22673;SDS011;11504;43.334;21.918;2023-04-12T00:25:56;37.0;;;35.0;;
22673;SDS011;11504;43.334;21.918;2023-04-12T00:30:33;36.0;;;34.0;;
22673;SDS011;11504;43.334;21.918;2023-04-12T00:35:09;36.0;;;34.0;;
22673;SDS011;11504;43.334;21.918;2023-04-12T00:39:46;36.0;;;34.0;;
22673;SDS011;11504;43.334;21.918;2023-04-12T00:44:23;35.0;;;33.0;;
22673;SDS011;11504;43.334;21.918;2023-04-12T00:49:00;35.0;;;33.0;;
22673;SDS011;11504;43.334;21.918;2023-04-12T00:53:39;36.0;;;34.0;;
22673;SDS011;11504;43.334;21.918;2023-04-12T00:58:20;36.0;;;34.0;;
22673;SDS011;11504;43.334;21.918;2023-04-12T01:02:59;38.0;;;34.0;;
22673;SDS011;11504;43.334;21.918;2023-04-12T01:07:39;38.0;;;34.0;;
22673;SDS011;11504;43.334;21.918;2023-04-12T01:12:56;39.0;;;36.0;;
22673;SDS011;11504;43.334;21.918;2023-04-12T01:18:20;39.0;;;36.0;;
22673;SDS011;11504;43.334;21.918;2023-04-12T01:23:21;40.0;;;38.0;;
22673;SDS011;11504;43.334;21.918;2023-04-12T01:28:57;40.0;;;38.0;;
22673;SDS011;11504;43.334;21.918;2023-04-12T01:33:45;44.0;;;42.0;;
22673;SDS011;11504;43.334;21.918;2023-04-12T01:38:28;44.0;;;42.0;;
22673;SDS011;11504;43.334;21.918;2023-04-12T01:43:09;49.0;;;47.0;;
22673;SDS011;11504;43.334;21.918;2023-04-12T01:47:48;49.0;;;47.0;;
22673;SDS011;11504;43.334;21.918;2023-04-12T01:52:25;48.0;;;44.0;;
22673;SDS011;11504;43.334;21.918;2023-04-12T01:57:23;48.0;;;44.0;;
22673;SDS011;11504;43.334;21.918;2023-04-12T02:02:03;47.0;;;42.0;;
22673;SDS011;11504;43.334;21.918;2023-04-12T02:06:45;47.0;;;42.0;;
22673;SDS011;11504;43.334;21.918;2023-04-12T02:11:23;41.0;;;37.0;;
22673;SDS011;11504;43.334;21.918;2023-04-12T02:16:00;41.0;;;37.0;;
22673;SDS011;11504;43.334;21.918;2023-04-12T02:20:39;35.0;;;32.0;;
22673;SDS011;11504;43.334;21.918;2023-04-12T02:25:16;35.0;;;32.0;;
22673;SDS011;11504;43.334;21.918;2023-04-12T02:29:53;35.0;;;32.0;;
22673;SDS011;11504;43.334;21.918;2023-04-12T02:34:30;30.0;;;26.0;;
22673;SDS011;11504;43.334;21.918;2023-04-12T02:39:07;30.0;;;26.0;;
22673;SDS011;11504;43.334;21.918;2023-04-12T02:43:44;24.0;;;21.0;;
22673;SDS011;11504;43.334;21.918;2023-04-12T02:48:21;24.0;;;21.0;;
22673;SDS011;11504;43.334;21.918;2023-04-12T02:52:58;22.0;;;20.0;;
22673;SDS011;11504;43.334;21.918;2023-04-12T02:57:35;22.0;;;20.0;;
22673;SDS011;11504;43.334;21.918;2023-04-12T03:02:12;20.0;;;18.0;;
22673;SDS011;11504;43.334;21.918;2023-04-12T03:06:49;20.0;;;18.0;;
22673;SDS011;11504;43.334;21.918;2023-04-12T03:11:25;20.0;;;18.0;;
22673;SDS011;11504;43.334;21.918;2023-04-12T03:16:18;20.0;;;18.0;;
22673;SDS011;11504;43.334;21.918;2023-04-12T03:21:01;21.0;;;19.0;;
22673;SDS011;11504;43.334;21.918;2023-04-12T03:25:38;21.0;;;19.0;;
22673;SDS011;11504;43.334;21.918;2023-04-12T03:30:15;21.0;;;19.0;;
22673;SDS011;11504;43.334;21.918;2023-04-12T03:34:51;20.0;;;18.0;;
22673;SDS011;11504;43.334;21.918;2023-04-12T03:39:28;20.0;;;18.0;;
22673;SDS011;11504;43.334;21.918;2023-04-12T03:44:04;20.0;;;17.0;;
22673;SDS011;11504;43.334;21.918;2023-04-12T03:48:41;20.0;;;17.0;;
22673;SDS011;11504;43.334;21.918;2023-04-12T03:53:18;18.0;;;16.0;;
22673;SDS011;11504;43.334;21.918;2023-04-12T03:57:55;18.0;;;16.0;;
22673;SDS011;11504;43.334;21.918;2023-04-12T04:02:32;17.0;;;16.0;;
22673;SDS011;11504;43.334;21.918;2023-04-12T04:07:09;17.0;;;16.0;;
22673;SDS011;11504;43.334;21.918;2023-04-12T04:11:47;20.0;;;17.0;;
22673;SDS011;11504;43.334;21.918;2023-04-12T04:16:23;20.0;;;17.0;;
22673;SDS011;11504;43.334;21.918;2023-04-12T04:21:00;22.0;;;18.0;;
22673;SDS011;11504;43.334;21.918;2023-04-12T04:25:37;22.0;;;18.0;;
22673;SDS011;11504;43.334;21.918;2023-04-12T04:30:13;22.0;;;18.0;;
22673;SDS011;11504;43.334;21.918;2023-04-12T04:34:50;19.0;;;16.0;;
22673;SDS011;11504;43.334;21.918;2023-04-12T04:39:26;19.0;;;16.0;;
22673;SDS011;11504;43.334;21.918;2023-04-12T04:44:03;16.0;;;15.0;;
22673;SDS011;11504;43.334;21.918;2023-04-12T04:48:41;16.0;;;15.0;;
22673;SDS011;11504;43.334;21.918;2023-04-12T04:53:18;17.0;;;16.0;;
22673;SDS011;11504;43.334;21.918;2023-04-12T04:57:58;17.0;;;16.0;;
22673;SDS011;11504;43.334;21.918;2023-04-12T05:02:34;18.0;;;16.0;;
22673;SDS011;11504;43.334;21.918;2023-04-12T05:07:12;18.0;;;16.0;;
22673;SDS011;11504;43.334;21.918;2023-04-12T05:11:49;20.0;;;16.0;;
22673;SDS011;11504;43.334;21.918;2023-04-12T05:16:26;20.0;;;16.0;;
22673;SDS011;11504;43.334;21.918;2023-04-12T05:21:03;21.0;;;16.0;;
22673;SDS011;11504;43.334;21.918;2023-04-12T05:25:43;21.0;;;16.0;;
22673;SDS011;11504;43.334;21.918;2023-04-12T05:30:23;21.0;;;16.0;;
22673;SDS011;11504;43.334;21.918;2023-04-12T05:35:00;18.0;;;14.0;;
22673;SDS011;11504;43.334;21.918;2023-04-12T05:39:38;18.0;;;14.0;;
22673;SDS011;11504;43.334;21.918;2023-04-12T05:44:14;14.0;;;13.0;;
22673;SDS011;11504;43.334;21.918;2023-04-12T05:48:52;14.0;;;13.0;;
22673;SDS011;11504;43.334;21.918;2023-04-12T05:53:29;14.0;;;14.0;;
22673;SDS011;11504;43.334;21.918;2023-04-12T05:58:06;14.0;;;14.0;;
22673;SDS011;11504;43.334;21.918;2023-04-12T06:02:43;15.0;;;14.0;;
22673;SDS011;11504;43.334;21.918;2023-04-12T06:07:23;15.0;;;14.0;;
22673;SDS011;11504;43.334;21.918;2023-04-12T06:12:00;14.0;;;12.0;;
22673;SDS011;11504;43.334;21.918;2023-04-12T06:16:36;14.0;;;12.0;;
22673;SDS011;11504;43.334;21.918;2023-04-12T06:21:13;14.0;;;10.0;;
22673;SDS011;11504;43.334;21.918;2023-04-12T06:25:50;14.0;;;10.0;;
22673;SDS011;11504;43.334;21.918;2023-04-12T06:30:26;14.0;;;10.0;;
22673;SDS011;11504;43.334;21.918;2023-04-12T06:35:03;16.0;;;11.0;;
22673;SDS011;11504;43.334;21.918;2023-04-12T06:39:42;16.0;;;11.0;;
22673;SDS011;11504;43.334;21.918;2023-04-12T06:44:19;17.0;;;12.0;;
22673;SDS011;11504;43.334;21.918;2023-04-12T06:48:55;17.0;;;12.0;;
22673;SDS011;11504;43.334;21.918;2023-04-12T06:53:32;15.0;;;12.0;;
22673;SDS011;11504;43.334;21.918;2023-04-12T06:58:08;15.0;;;12.0;;
22673;SDS011;11504;43.334;21.918;2023-04-12T07:02:44;13.0;;;12.0;;
22673;SDS011;11504;43.334;21.918;2023-04-12T07:07:21;13.0;;;12.0;;
22673;SDS011;11504;43.334;21.918;2023-04-12T07:11:57;13.0;;;12.0;;
22673;SDS011;11504;43.334;21.918;2023-04-12T07:16:35;13.0;;;12.0;;
22673;SDS011;11504;43.334;21.918;2023-04-12T07:21:11;13.0;;;12.0;;
22673;SDS011;11504;43.334;21.918;2023-04-12T07:25:48;13.0;;;12.0;;
22673;SDS011;11504;43.334;21.918;2023-04-12T07:30:24;13.0;;;12.0;;
22673;SDS011;11504;43.334;21.918;2023-04-12T07:35:02;12.0;;;12.0;;
22673;SDS011;11504;43.334;21.918;2023-04-12T07:39:42;12.0;;;12.0;;
22673;SDS011;11504;43.334;21.918;2023-04-12T07:44:19;11.0;;;11.0;;
22673;SDS011;11504;43.334;21.918;2023-04-12T07:48:56;11.0;;;11.0;;
22673;SDS011;11504;43.334;21.918;2023-04-12T07:53:33;10.0;;;10.0;;
22673;SDS011;11504;43.334;21.918;2023-04-12T07:58:10;10.0;;;10.0;;
22673;SDS011;11504;43.334;21.918;2023-04-12T08:02:47;10.0;;;10.0;;
22673;SDS011;11504;43.334;21.918;2023-04-12T08:07:24;10.0;;;10.0;;
22673;SDS011;11504;43.334;21.918;2023-04-12T08:12:02;11.0;;;10.0;;
22673;SDS011;11504;43.334;21.918;2023-04-12T08:16:40;11.0;;;10.0;;
22673;SDS011;11504;43.334;21.918;2023-04-12T08:21:16;12.0;;;11.0;;
22673;SDS011;11504;43.334;21.918;2023-04-12T08:25:53;12.0;;;11.0;;
22673;SDS011;11504;43.334;21.918;2023-04-12T08:30:30;12.0;;;11.0;;
22673;SDS011;11504;43.334;21.918;2023-04-12T08:35:08;12.0;;;10.0;;
22673;SDS011;11504;43.334;21.918;2023-04-12T08:39:45;12.0;;;10.0;;
22673;SDS011;11504;43.334;21.918;2023-04-12T08:44:25;11.0;;;10.0;;
22673;SDS011;11504;43.334;21.918;2023-04-12T08:49:14;11.0;;;10.0;;
22673;SDS011;11504;43.334;21.918;2023-04-12T08:53:52;10.0;;;10.0;;
22673;SDS011;11504;43.334;21.918;2023-04-12T08:58:28;10.0;;;10.0;;
22673;SDS011;11504;43.334;21.918;2023-04-12T09:03:08;9.0;;;9.0;;
22673;SDS011;11504;43.334;21.918;2023-04-12T09:07:44;9.0;;;9.0;;
22673;SDS011;11504;43.334;21.918;2023-04-12T09:12:21;10.0;;;8.0;;
22673;SDS011;11504;43.334;21.918;2023-04-12T09:17:01;10.0;;;8.0;;
22673;SDS011;11504;43.334;21.918;2023-04-12T09:21:50;11.0;;;7.0;;
22673;SDS011;11504;43.334;21.918;2023-04-12T09:26:30;11.0;;;7.0;;
22673;SDS011;11504;43.334;21.918;2023-04-12T09:31:07;10.0;;;8.0;;
22673;SDS011;11504;43.334;21.918;2023-04-12T09:35:51;10.0;;;8.0;;
22673;SDS011;11504;43.334;21.918;2023-04-12T09:40:40;10.0;;;8.0;;
22673;SDS011;11504;43.334;21.918;2023-04-12T09:45:18;9.0;;;9.0;;
22673;SDS011;11504;43.334;21.918;2023-04-12T09:50:00;9.0;;;9.0;;
22673;SDS011;11504;43.334;21.918;2023-04-12T09:54:43;9.0;;;9.0;;
22673;SDS011;11504;43.334;21.918;2023-04-12T09:59:23;9.0;;;9.0;;
22673;SDS011;11504;43.334;21.918;2023-04-12T10:04:11;9.0;;;9.0;;
22673;SDS011;11504;43.334;21.918;2023-04-12T10:08:48;9.0;;;9.0;;
22673;SDS011;11504;43.334;21.918;2023-04-12T10:13:26;8.0;;;8.0;;
22673;SDS011;11504;43.334;21.918;2023-04-12T10:18:07;8.0;;;8.0;;
22673;SDS011;11504;43.334;21.918;2023-04-12T10:22:53;8.0;;;8.0;;
22673;SDS011;11504;43.334;21.918;2023-04-12T10:27:31;8.0;;;8.0;;
22673;SDS011;11504;43.334;21.918;2023-04-12T10:32:24;8.0;;;8.0;;
22673;SDS011;11504;43.334;21.918;2023-04-12T10:37:01;8.0;;;8.0;;
22673;SDS011;11504;43.334;21.918;2023-04-12T10:41:37;9.0;;;8.0;;
22673;SDS011;11504;43.334;21.918;2023-04-12T10:46:56;9.0;;;8.0;;
22673;SDS011;11504;43.334;21.918;2023-04-12T10:51:33;8.0;;;8.0;;
22673;SDS011;11504;43.334;21.918;2023-04-12T10:56:33;8.0;;;8.0;;
22673;SDS011;11504;43.334;21.918;2023-04-12T11:01:16;8.0;;;7.0;;
22673;SDS011;11504;43.334;21.918;2023-04-12T11:05:55;8.0;;;7.0;;
22673;SDS011;11504;43.334;21.918;2023-04-12T11:10:40;8.0;;;7.0;;
22673;SDS011;11504;43.334;21.918;2023-04-12T11:15:24;8.0;;;7.0;;
22673;SDS011;11504;43.334;21.918;2023-04-12T11:20:09;8.0;;;7.0;;
22673;SDS011;11504;43.334;21.918;2023-04-12T11:24:48;8.0;;;7.0;;
22673;SDS011;11504;43.334;21.918;2023-04-12T11:29:36;8.0;;;7.0;;
22673;SDS011;11504;43.334;21.918;2023-04-12T11:34:15;8.0;;;7.0;;
22673;SDS011;11504;43.334;21.918;2023-04-12T11:38:55;8.0;;;7.0;;
22673;SDS011;11504;43.334;21.918;2023-04-12T11:43:32;8.0;;;7.0;;
22673;SDS011;11504;43.334;21.918;2023-04-12T11:48:12;8.0;;;7.0;;
22673;SDS011;11504;43.334;21.918;2023-04-12T11:52:50;8.0;;;6.0;;
22673;SDS011;11504;43.334;21.918;2023-04-12T11:57:27;8.0;;;6.0;;
22673;SDS011;11504;43.334;21.918;2023-04-12T12:02:04;7.0;;;6.0;;
22673;SDS011;11504;43.334;21.918;2023-04-12T12:06:44;7.0;;;6.0;;
22673;SDS011;11504;43.334;21.918;2023-04-12T12:11:23;6.0;;;6.0;;
22673;SDS011;11504;43.334;21.918;2023-04-12T12:16:00;6.0;;;6.0;;
22673;SDS011;11504;43.334;21.918;2023-04-12T12:20:41;6.0;;;6.0;;
22673;SDS011;11504;43.334;21.918;2023-04-12T12:25:27;6.0;;;6.0;;
22673;SDS011;11504;43.334;21.918;2023-04-12T12:30:05;6.0;;;6.0;;
22673;SDS011;11504;43.334;21.918;2023-04-12T12:34:49;6.0;;;6.0;;
22673;SDS011;11504;43.334;21.918;2023-04-12T12:39:33;6.0;;;6.0;;
22673;SDS011;11504;43.334;21.918;2023-04-12T12:44:09;6.0;;;6.0;;
22673;SDS011;11504;43.334;21.918;2023-04-12T12:48:47;6.0;;;6.0;;
22673;SDS011;11504;43.334;21.918;2023-04-12T12:53:24;6.0;;;6.0;;
22673;SDS011;11504;43.334;21.918;2023-04-12T12:58:00;6.0;;;6.0;;
22673;SDS011;11504;43.334;21.918;2023-04-12T13:02:37;7.0;;;7.0;;
22673;SDS011;11504;43.334;21.918;2023-04-12T13:07:14;7.0;;;7.0;;
22673;SDS011;11504;43.334;21.918;2023-04-12T13:11:51;7.0;;;7.0;;
22673;SDS011;11504;43.334;21.918;2023-04-12T13:16:28;7.0;;;7.0;;
22673;SDS011;11504;43.334;21.918;2023-04-12T13:21:05;7.0;;;7.0;;
22673;SDS011;11504;43.334;21.918;2023-04-12T13:25:42;7.0;;;7.0;;
22673;SDS011;11504;43.334;21.918;2023-04-12T13:30:19;7.0;;;7.0;;
22673;SDS011;11504;43.334;21.918;2023-04-12T13:34:56;8.0;;;7.0;;
22673;SDS011;11504;43.334;21.918;2023-04-12T13:39:33;8.0;;;7.0;;
22673;SDS011;11504;43.334;21.918;2023-04-12T13:44:09;8.0;;;7.0;;
22673;SDS011;11504;43.334;21.918;2023-04-12T13:48:46;8.0;;;7.0;;
22673;SDS011;11504;43.334;21.918;2023-04-12T13:53:23;8.0;;;6.0;;
22673;SDS011;11504;43.334;21.918;2023-04-12T13:57:59;8.0;;;6.0;;
22673;SDS011;11504;43.334;21.918;2023-04-12T14:02:36;7.0;;;6.0;;
22673;SDS011;11504;43.334;21.918;2023-04-12T14:07:13;7.0;;;6.0;;
22673;SDS011;11504;43.334;21.918;2023-04-12T14:11:50;7.0;;;6.0;;
22673;SDS011;11504;43.334;21.918;2023-04-12T14:16:34;7.0;;;6.0;;
22673;SDS011;11504;43.334;21.918;2023-04-12T14:21:11;7.0;;;6.0;;
22673;SDS011;11504;43.334;21.918;2023-04-12T14:25:53;7.0;;;7.0;;
22673;SDS011;11504;43.334;21.918;2023-04-12T14:30:30;7.0;;;7.0;;
22673;SDS011;11504;43.334;21.918;2023-04-12T14:35:08;8.0;;;6.0;;
22673;SDS011;11504;43.334;21.918;2023-04-12T14:39:44;8.0;;;6.0;;
22673;SDS011;11504;43.334;21.918;2023-04-12T14:44:21;8.0;;;6.0;;
22673;SDS011;11504;43.334;21.918;2023-04-12T14:48:57;8.0;;;6.0;;
22673;SDS011;11504;43.334;21.918;2023-04-12T14:53:34;8.0;;;6.0;;
22673;SDS011;11504;43.334;21.918;2023-04-12T14:58:11;8.0;;;6.0;;
22673;SDS011;11504;43.334;21.918;2023-04-12T15:02:48;8.0;;;7.0;;
22673;SDS011;11504;43.334;21.918;2023-04-12T15:07:24;8.0;;;7.0;;
22673;SDS011;11504;43.334;21.918;2023-04-12T15:12:00;9.0;;;8.0;;
22673;SDS011;11504;43.334;21.918;2023-04-12T15:16:36;9.0;;;8.0;;
22673;SDS011;11504;43.334;21.918;2023-04-12T15:21:12;9.0;;;8.0;;
22673;SDS011;11504;43.334;21.918;2023-04-12T15:25:49;10.0;;;9.0;;
22673;SDS011;11504;43.334;21.918;2023-04-12T15:30:34;10.0;;;9.0;;
22673;SDS011;11504;43.334;21.918;2023-04-12T15:35:11;10.0;;;8.0;;
22673;SDS011;11504;43.334;21.918;2023-04-12T15:39:48;10.0;;;8.0;;
22673;SDS011;11504;43.334;21.918;2023-04-12T15:44:25;9.0;;;8.0;;
22673;SDS011;11504;43.334;21.918;2023-04-12T15:49:01;9.0;;;8.0;;
22673;SDS011;11504;43.334;21.918;2023-04-12T15:53:38;10.0;;;8.0;;
22673;SDS011;11504;43.334;21.918;2023-04-12T15:58:14;10.0;;;8.0;;
22673;SDS011;11504;43.334;21.918;2023-04-12T16:02:51;10.0;;;8.0;;
22673;SDS011;11504;43.334;21.918;2023-04-12T16:07:30;10.0;;;8.0;;
22673;SDS011;11504;43.334;21.918;2023-04-12T16:12:06;10.0;;;8.0;;
22673;SDS011;11504;43.334;21.918;2023-04-12T16:16:43;10.0;;;8.0;;
22673;SDS011;11504;43.334;21.918;2023-04-12T16:21:20;10.0;;;8.0;;
22673;SDS011;11504;43.334;21.918;2023-04-12T16:25:58;9.0;;;9.0;;
22673;SDS011;11504;43.334;21.918;2023-04-12T16:30:35;9.0;;;9.0;;
22673;SDS011;11504;43.334;21.918;2023-04-12T16:35:13;10.0;;;10.0;;
22673;SDS011;11504;43.334;21.918;2023-04-12T16:39:51;10.0;;;10.0;;
22673;SDS011;11504;43.334;21.918;2023-04-12T16:44:28;11.0;;;10.0;;
22673;SDS011;11504;43.334;21.918;2023-04-12T16:49:05;11.0;;;10.0;;
22673;SDS011;11504;43.334;21.918;2023-04-12T16:53:41;12.0;;;10.0;;
22673;SDS011;11504;43.334;21.918;2023-04-12T16:58:18;12.0;;;10.0;;
22673;SDS011;11504;43.334;21.918;2023-04-12T17:02:55;12.0;;;9.0;;
22673;SDS011;11504;43.334;21.918;2023-04-12T17:07:31;12.0;;;9.0;;
22673;SDS011;11504;43.334;21.918;2023-04-12T17:12:08;11.0;;;9.0;;
22673;SDS011;11504;43.334;21.918;2023-04-12T17:16:45;11.0;;;9.0;;
22673;SDS011;11504;43.334;21.918;2023-04-12T17:21:21;11.0;;;9.0;;
22673;SDS011;11504;43.334;21.918;2023-04-12T17:25:58;10.0;;;9.0;;
22673;SDS011;11504;43.334;21.918;2023-04-12T17:30:34;10.0;;;9.0;;
22673;SDS011;11504;43.334;21.918;2023-04-12T17:35:11;15.0;;;12.0;;
22673;SDS011;11504;43.334;21.918;2023-04-12T17:39:48;15.0;;;12.0;;
22673;SDS011;11504;43.334;21.918;2023-04-12T17:44:26;20.0;;;16.0;;
22673;SDS011;11504;43.334;21.918;2023-04-12T17:49:02;20.0;;;16.0;;
22673;SDS011;11504;43.334;21.918;2023-04-12T17:53:38;19.0;;;16.0;;
22673;SDS011;11504;43.334;21.918;2023-04-12T17:58:15;19.0;;;16.0;;
22673;SDS011;11504;43.334;21.918;2023-04-12T18:02:51;18.0;;;17.0;;
22673;SDS011;11504;43.334;21.918;2023-04-12T18:07:27;18.0;;;17.0;;
22673;SDS011;11504;43.334;21.918;2023-04-12T18:12:03;26.0;;;24.0;;
22673;SDS011;11504;43.334;21.918;2023-04-12T18:16:40;26.0;;;24.0;;
22673;SDS011;11504;43.334;21.918;2023-04-12T18:21:17;26.0;;;24.0;;
22673;SDS011;11504;43.334;21.918;2023-04-12T18:25:53;35.0;;;31.0;;
22673;SDS011;11504;43.334;21.918;2023-04-12T18:30:30;35.0;;;31.0;;
22673;SDS011;11504;43.334;21.918;2023-04-12T18:35:07;37.0;;;34.0;;
22673;SDS011;11504;43.334;21.918;2023-04-12T18:39:44;37.0;;;34.0;;
22673;SDS011;11504;43.334;21.918;2023-04-12T18:44:21;39.0;;;37.0;;
22673;SDS011;11504;43.334;21.918;2023-04-12T18:48:58;39.0;;;37.0;;
22673;SDS011;11504;43.334;21.918;2023-04-12T18:53:34;56.0;;;53.0;;
22673;SDS011;11504;43.334;21.918;2023-04-12T18:58:10;56.0;;;53.0;;
22673;SDS011;11504;43.334;21.918;2023-04-12T19:02:47;73.0;;;69.0;;
22673;SDS011;11504;43.334;21.918;2023-04-12T19:07:24;73.0;;;69.0;;
22673;SDS011;11504;43.334;21.918;2023-04-12T19:12:01;71.0;;;68.0;;
22673;SDS011;11504;43.334;21.918;2023-04-12T19:16:38;71.0;;;68.0;;
22673;SDS011;11504;43.334;21.918;2023-04-12T19:21:15;71.0;;;68.0;;
22673;SDS011;11504;43.334;21.918;2023-04-12T19:25:52;69.0;;;66.0;;
22673;SDS011;11504;43.334;21.918;2023-04-12T19:30:30;69.0;;;66.0;;
22673;SDS011;11504;43.334;21.918;2023-04-12T19:35:08;61.0;;;57.0;;
22673;SDS011;11504;43.334;21.918;2023-04-12T19:39:45;61.0;;;57.0;;
22673;SDS011;11504;43.334;21.918;2023-04-12T19:44:23;53.0;;;48.0;;
22673;SDS011;11504;43.334;21.918;2023-04-12T19:49:01;53.0;;;48.0;;
22673;SDS011;11504;43.334;21.918;2023-04-12T19:53:37;46.0;;;42.0;;
22673;SDS011;11504;43.334;21.918;2023-04-12T19:58:14;46.0;;;42.0;;
22673;SDS011;11504;43.334;21.918;2023-04-12T20:02:51;40.0;;;35.0;;
22673;SDS011;11504;43.334;21.918;2023-04-12T20:07:29;40.0;;;35.0;;
22673;SDS011;11504;43.334;21.918;2023-04-12T20:12:05;30.0;;;26.0;;
22673;SDS011;11504;43.334;21.918;2023-04-12T20:16:42;30.0;;;26.0;;
22673;SDS011;11504;43.334;21.918;2023-04-12T20:21:19;30.0;;;26.0;;
22673;SDS011;11504;43.334;21.918;2023-04-12T20:25:56;21.0;;;18.0;;
22673;SDS011;11504;43.334;21.918;2023-04-12T20:30:32;21.0;;;18.0;;
22673;SDS011;11504;43.334;21.918;2023-04-12T20:35:10;22.0;;;20.0;;
22673;SDS011;11504;43.334;21.918;2023-04-12T20:39:47;22.0;;;20.0;;
22673;SDS011;11504;43.334;21.918;2023-04-12T20:44:23;24.0;;;23.0;;
22673;SDS011;11504;43.334;21.918;2023-04-12T20:48:59;24.0;;;23.0;;
22673;SDS011;11504;43.334;21.918;2023-04-12T20:53:36;34.0;;;32.0;;
22673;SDS011;11504;43.334;21.918;2023-04-12T20:58:12;34.0;;;32.0;;
22673;SDS011;11504;43.334;21.918;2023-04-12T21:02:48;43.0;;;41.0;;
22673;SDS011;11504;43.334;21.918;2023-04-12T21:07:25;43.0;;;41.0;;
22673;SDS011;11504;43.334;21.918;2023-04-12T21:12:01;37.0;;;34.0;;
22673;SDS011;11504;43.334;21.918;2023-04-12T21:16:40;37.0;;;34.0;;
22673;SDS011;11504;43.334;21.918;2023-04-12T21:21:17;37.0;;;34.0;;
22673;SDS011;11504;43.334;21.918;2023-04-12T21:25:54;31.0;;;27.0;;
22673;SDS011;11504;43.334;21.918;2023-04-12T21:30:31;31.0;;;27.0;;
22673;SDS011;11504;43.334;21.918;2023-04-12T21:35:08;24.0;;;21.0;;
22673;SDS011;11504;43.334;21.918;2023-04-12T21:39:47;24.0;;;21.0;;
22673;SDS011;11504;43.334;21.918;2023-04-12T21:44:24;17.0;;;15.0;;
22673;SDS011;11504;43.334;21.918;2023-04-12T21:49:01;17.0;;;15.0;;
22673;SDS011;11504;43.334;21.918;2023-04-12T21:53:37;19.0;;;17.0;;
22673;SDS011;11504;43.334;21.918;2023-04-12T21:58:14;19.0;;;17.0;;
22673;SDS011;11504;43.334;21.918;2023-04-12T22:02:51;21.0;;;19.0;;
22673;SDS011;11504;43.334;21.918;2023-04-12T22:07:28;21.0;;;19.0;;
22673;SDS011;11504;43.334;21.918;2023-04-12T22:12:05;22.0;;;20.0;;
22673;SDS011;11504;43.334;21.918;2023-04-12T22:16:43;22.0;;;20.0;;
22673;SDS011;11504;43.334;21.918;2023-04-12T22:21:19;22.0;;;20.0;;
22673;SDS011;11504;43.334;21.918;2023-04-12T22:25:56;24.0;;;20.0;;
22673;SDS011;11504;43.334;21.918;2023-04-12T22:30:34;24.0;;;20.0;;
22673;SDS011;11504;43.334;21.918;2023-04-12T22:35:10;22.0;;;19.0;;
22673;SDS011;11504;43.334;21.918;2023-04-12T22:39:47;22.0;;;19.0;;
22673;SDS011;11504;43.334;21.918;2023-04-12T22:44:24;19.0;;;18.0;;
22673;SDS011;11504;43.334;21.918;2023-04-12T22:49:02;19.0;;;18.0;;
22673;SDS011;11504;43.334;21.918;2023-04-12T22:53:38;17.0;;;16.0;;
22673;SDS011;11504;43.334;21.918;2023-04-12T22:58:15;17.0;;;16.0;;
22673;SDS011;11504;43.334;21.918;2023-04-12T23:02:51;15.0;;;14.0;;
22673;SDS011;11504;43.334;21.918;2023-04-12T23:07:27;15.0;;;14.0;;
22673;SDS011;11504;43.334;21.918;2023-04-12T23:12:03;15.0;;;14.0;;
22673;SDS011;11504;43.334;21.918;2023-04-12T23:16:40;15.0;;;14.0;;
22673;SDS011;11504;43.334;21.918;2023-04-12T23:21:18;15.0;;;14.0;;
22673;SDS011;11504;43.334;21.918;2023-04-12T23:25:54;15.0;;;14.0;;
22673;SDS011;11504;43.334;21.918;2023-04-12T23:30:30;15.0;;;14.0;;
22673;SDS011;11504;43.334;21.918;2023-04-12T23:35:07;14.0;;;14.0;;
22673;SDS011;11504;43.334;21.918;2023-04-12T23:39:44;14.0;;;14.0;;
22673;SDS011;11504;43.334;21.918;2023-04-12T23:44:21;14.0;;;13.0;;
22673;SDS011;11504;43.334;21.918;2023-04-12T23:48:57;14.0;;;13.0;;
22673;SDS011;11504;43.334;21.918;2023-04-12T23:53:34;13.0;;;12.0;;
22673;SDS011;11504;43.334;21.918;2023-04-12T23:58:11;13.0;;;12.0;;
